Time;durP1;ratioP1;P1;durP2;ratioP2;P2;SDS_P1;SDS_P2;PMS_P1;PMS_P2;Temp;Humidity;BMP_temperature;BMP_pressure;BME280_temperature;BME280_humidity;BME280_pressure;Samples;Min_cycle;Max_cycle;Signal;HPM_P1;HPM_P2
2022/09/29 04:00:38;;;;;;;5.73;5.40;;;9.60;99.90;;;;;;5868794;23;20471;-61
2022/09/29 04:03:05;;;;;;;6.33;5.37;;;9.60;99.90;;;;;;4975730;28;20443;-62
2022/09/29 04:05:33;;;;;;;5.20;4.80;;;9.50;99.90;;;;;;4976141;28;20458;-61
2022/09/29 04:08:00;;;;;;;5.97;5.37;;;9.40;99.90;;;;;;4975515;28;20478;-61
2022/09/29 04:10:26;;;;;;;5.80;5.30;;;9.40;99.90;;;;;;4975438;28;20455;-61
2022/09/29 04:12:53;;;;;;;5.40;5.00;;;9.40;99.90;;;;;;4975576;28;20447;-60
2022/09/29 04:15:20;;;;;;;6.33;5.70;;;9.30;99.90;;;;;;4975387;28;20454;-60
2022/09/29 04:17:48;;;;;;;5.70;5.27;;;9.30;99.90;;;;;;4975491;28;20459;-60
2022/09/29 04:20:14;;;;;;;7.60;6.03;;;9.30;99.90;;;;;;4975310;28;20856;-61
2022/09/29 04:22:42;;;;;;;6.60;6.10;;;9.30;99.90;;;;;;4975590;28;20458;-61
2022/09/29 04:25:09;;;;;;;11.10;9.90;;;9.20;99.90;;;;;;4974997;28;20945;-61
2022/09/29 04:27:36;;;;;;;12.23;9.80;;;9.20;99.90;;;;;;4974950;28;21063;-61
2022/09/29 04:30:03;;;;;;;7.80;7.10;;;9.30;99.90;;;;;;4974847;28;20948;-61
2022/09/29 04:32:30;;;;;;;8.87;6.47;;;9.30;99.90;;;;;;4975258;28;20486;-61
2022/09/29 04:34:58;;;;;;;7.97;7.27;;;9.30;99.90;;;;;;4975101;28;20517;-61
2022/09/29 04:37:24;;;;;;;10.80;8.20;;;9.20;99.90;;;;;;4975126;28;20455;-61
2022/09/29 04:39:52;;;;;;;7.90;6.10;;;9.20;99.90;;;;;;4975126;28;20458;-61
2022/09/29 04:42:19;;;;;;;9.13;6.77;;;9.20;99.90;;;;;;4975034;28;20481;-61
2022/09/29 04:44:46;;;;;;;6.43;5.83;;;9.10;99.90;;;;;;4975052;28;20525;-61
2022/09/29 04:47:12;;;;;;;5.47;5.07;;;9.10;99.90;;;;;;4974965;28;20486;-61
2022/09/29 04:49:39;;;;;;;5.40;5.00;;;9.10;99.90;;;;;;4975027;28;20509;-61
2022/09/29 04:52:07;;;;;;;5.60;5.20;;;9.10;99.90;;;;;;4974944;28;20474;-62
2022/09/29 04:54:35;;;;;;;6.07;5.57;;;9.10;99.90;;;;;;4975572;28;20462;-61
2022/09/29 04:57:01;;;;;;;6.47;5.93;;;9.10;99.90;;;;;;4975078;28;20509;-61
2022/09/29 04:59:28;;;;;;;7.20;5.60;;;9.10;99.90;;;;;;4975294;28;20458;-61
2022/09/29 05:01:55;;;;;;;6.20;5.80;;;9.00;99.90;;;;;;4974800;28;20536;-61
2022/09/29 05:04:22;;;;;;;7.37;6.20;;;9.00;99.90;;;;;;4975740;28;20462;-61
2022/09/29 05:06:48;;;;;;;6.23;5.70;;;9.00;99.90;;;;;;4975595;28;20474;-62
2022/09/29 05:09:17;;;;;;;6.97;6.37;;;9.00;99.90;;;;;;4975703;28;20862;-61
2022/09/29 05:11:43;;;;;;;6.23;5.70;;;9.00;99.90;;;;;;4974913;28;20566;-61
2022/09/29 05:14:11;;;;;;;5.47;4.97;;;9.00;99.90;;;;;;4974869;28;20858;-61
2022/09/29 05:16:37;;;;;;;6.30;5.90;;;9.00;99.90;;;;;;4974931;28;20509;-61
2022/09/29 05:19:04;;;;;;;5.60;5.20;;;9.00;99.90;;;;;;4974774;28;20454;-61
2022/09/29 05:21:31;;;;;;;6.87;6.37;;;9.00;99.90;;;;;;4975084;28;20481;-61
2022/09/29 05:23:57;;;;;;;7.10;6.40;;;8.90;99.90;;;;;;4974593;28;20906;-62
2022/09/29 05:26:26;;;;;;;7.87;7.07;;;8.90;99.90;;;;;;4975218;28;20459;-61
2022/09/29 05:28:52;;;;;;;6.70;6.10;;;8.80;99.90;;;;;;4978024;28;20458;-61
2022/09/29 05:31:19;;;;;;;6.80;6.20;;;8.80;99.90;;;;;;4978224;28;20525;-61
2022/09/29 05:33:46;;;;;;;7.20;6.60;;;8.70;99.90;;;;;;4978518;28;20509;-62
2022/09/29 05:36:13;;;;;;;7.43;6.93;;;8.70;99.90;;;;;;4978310;28;20459;-60
2022/09/29 05:38:40;;;;;;;7.30;6.67;;;8.60;99.90;;;;;;4978528;28;20458;-61
2022/09/29 05:41:09;;;;;;;7.03;6.43;;;8.60;99.90;;;;;;4978285;28;20529;-61
2022/09/29 05:43:38;;;;;;;7.57;6.87;;;8.60;99.90;;;;;;4978437;28;20551;-61
2022/09/29 05:46:07;;;;;;;8.60;6.03;;;8.50;99.90;;;;;;4978338;28;20877;-61
2022/09/29 05:48:34;;;;;;;6.50;6.07;;;8.50;99.90;;;;;;4977845;28;20478;-61
2022/09/29 05:51:07;;;;;;;9.57;6.90;;;8.50;99.90;;;;;;4978058;28;20474;-63
2022/09/29 05:53:34;;;;;;;6.70;6.13;;;8.50;99.90;;;;;;4978106;28;20507;-62
2022/09/29 05:56:05;;;;;;;6.80;6.23;;;8.60;99.90;;;;;;4977975;28;20508;-62
2022/09/29 05:58:32;;;;;;;6.80;6.30;;;8.60;99.90;;;;;;4977710;28;20529;-62
2022/09/29 06:01:05;;;;;;;6.80;6.20;;;8.60;99.90;;;;;;4977596;28;20543;-62
2022/09/29 06:03:33;;;;;;;6.33;5.83;;;8.70;99.90;;;;;;4978008;28;20447;-62
2022/09/29 06:06:05;;;;;;;6.60;6.17;;;8.80;99.90;;;;;;4977893;28;20455;-62
2022/09/29 06:08:32;;;;;;;10.17;5.70;;;8.80;99.90;;;;;;4977730;28;20463;-62
2022/09/29 06:11:03;;;;;;;6.70;6.10;;;8.90;99.90;;;;;;4977575;28;20867;-62
2022/09/29 06:13:30;;;;;;;7.17;6.10;;;9.00;99.90;;;;;;4977951;28;20443;-62
2022/09/29 06:16:00;;;;;;;7.30;6.60;;;9.00;99.90;;;;;;4978555;28;20450;-62
2022/09/29 06:18:26;;;;;;;9.23;6.43;;;9.10;99.90;;;;;;4978066;28;20435;-62
2022/09/29 06:20:53;;;;;;;6.57;6.00;;;9.20;99.90;;;;;;4977617;28;20499;-62
2022/09/29 06:23:20;;;;;;;9.00;6.80;;;9.30;99.90;;;;;;4977544;28;20936;-62
2022/09/29 06:25:46;;;;;;;7.83;6.47;;;9.40;99.90;;;;;;4977442;28;20514;-62
2022/09/29 06:28:13;;;;;;;6.80;6.10;;;9.50;99.90;;;;;;4977394;28;20562;-62
2022/09/29 06:30:40;;;;;;;6.83;6.13;;;9.60;99.90;;;;;;4977372;28;20533;-62
2022/09/29 06:33:08;;;;;;;6.60;5.70;;;9.60;99.90;;;;;;4977395;28;20450;-62
2022/09/29 06:38:19;;;;;;;7.40;6.73;;;9.50;99.90;;;;;;4976755;28;20418;-62
2022/09/29 06:40:45;;;;;;;9.87;7.00;;;9.60;99.90;;;;;;4976562;28;20841;-62
2022/09/29 06:43:12;;;;;;;8.30;6.20;;;9.60;99.90;;;;;;4977149;28;20458;-62
2022/09/29 06:45:39;;;;;;;7.80;7.10;;;9.60;99.90;;;;;;4977279;28;20454;-62
2022/09/29 06:48:05;;;;;;;6.40;5.80;;;9.70;99.90;;;;;;4977034;28;20474;-62
2022/09/29 06:50:34;;;;;;;7.50;5.60;;;9.70;99.90;;;;;;4976968;28;20885;-62
2022/09/29 06:53:01;;;;;;;5.50;5.10;;;9.80;99.90;;;;;;4976956;28;20509;-62
2022/09/29 06:55:28;;;;;;;5.53;5.13;;;9.90;99.90;;;;;;4976961;28;20867;-62
2022/09/29 06:57:55;;;;;;;5.63;5.20;;;9.90;99.90;;;;;;4976651;28;21021;-62
2022/09/29 07:00:21;;;;;;;5.60;5.10;;;10.00;99.90;;;;;;4976674;28;20459;-62
2022/09/29 07:02:48;;;;;;;5.50;4.93;;;10.00;99.90;;;;;;4976930;28;20439;-62
2022/09/29 07:05:15;;;;;;;7.17;5.60;;;10.20;99.90;;;;;;4976817;28;20522;-62
2022/09/29 07:07:43;;;;;;;5.23;4.90;;;10.20;99.90;;;;;;4976589;28;21001;-62
2022/09/29 07:10:10;;;;;;;8.13;5.90;;;10.30;99.90;;;;;;4976308;28;20815;-62
2022/09/29 07:12:37;;;;;;;4.70;4.30;;;10.40;99.90;;;;;;4976501;28;20946;-62
2022/09/29 07:15:04;;;;;;;8.03;5.30;;;10.50;99.90;;;;;;4976763;28;20463;-62
2022/09/29 07:17:31;;;;;;;6.47;5.90;;;10.60;99.90;;;;;;4976536;28;20938;-62
2022/09/29 07:19:58;;;;;;;6.70;5.10;;;10.60;99.90;;;;;;4976462;28;20459;-62
2022/09/29 07:22:24;;;;;;;10.63;5.73;;;10.60;99.90;;;;;;4976355;28;20478;-61
2022/09/29 07:24:53;;;;;;;5.50;5.00;;;10.60;99.90;;;;;;4976426;28;20942;-62
2022/09/29 07:27:23;;;;;;;5.10;4.60;;;10.70;99.90;;;;;;4976253;28;20471;-62
2022/09/29 07:29:49;;;;;;;10.50;5.87;;;10.80;99.90;;;;;;4976356;28;20477;-61
2022/09/29 07:32:16;;;;;;;6.30;5.40;;;10.70;99.90;;;;;;4976217;28;20533;-62
2022/09/29 07:34:43;;;;;;;6.03;5.53;;;10.70;99.90;;;;;;4977110;28;20454;-62
2022/09/29 07:37:10;;;;;;;5.67;5.17;;;10.70;99.90;;;;;;4976153;28;20458;-62
2022/09/29 07:39:36;;;;;;;7.30;6.57;;;10.80;99.90;;;;;;4976121;28;20490;-62
2022/09/29 07:42:05;;;;;;;6.30;5.70;;;10.80;99.90;;;;;;4975897;28;20479;-62
2022/09/29 07:44:31;;;;;;;7.43;6.73;;;10.90;99.90;;;;;;4975930;28;20457;-62
2022/09/29 07:46:58;;;;;;;6.17;5.57;;;10.90;99.90;;;;;;4975914;28;20465;-62
2022/09/29 07:49:25;;;;;;;5.93;5.17;;;11.00;99.90;;;;;;4976035;28;20470;-61
2022/09/29 07:51:52;;;;;;;6.37;5.87;;;11.10;99.90;;;;;;4975558;28;20486;-62
2022/09/29 07:54:18;;;;;;;5.73;5.23;;;11.20;99.90;;;;;;4976362;28;20459;-62
2022/09/29 07:56:45;;;;;;;9.07;6.40;;;11.40;99.90;;;;;;4975813;28;20494;-62
2022/09/29 07:59:13;;;;;;;6.07;5.57;;;11.50;99.90;;;;;;4975780;28;20507;-62
2022/09/29 08:01:40;;;;;;;9.57;6.40;;;11.60;99.90;;;;;;4975311;28;21064;-62
2022/09/29 08:04:07;;;;;;;6.43;5.93;;;11.60;99.90;;;;;;4975784;28;20454;-62
2022/09/29 08:06:34;;;;;;;5.83;5.33;;;11.60;99.90;;;;;;4975569;28;20529;-62
2022/09/29 08:09:00;;;;;;;7.30;6.60;;;11.80;99.90;;;;;;4975569;28;20486;-62
2022/09/29 08:11:27;;;;;;;6.23;5.60;;;11.90;99.90;;;;;;4975481;28;20529;-62
2022/09/29 08:13:55;;;;;;;7.07;5.93;;;12.00;99.90;;;;;;4976059;28;20551;-62
2022/09/29 08:16:23;;;;;;;6.23;5.73;;;12.10;99.90;;;;;;4975650;28;20498;-62
2022/09/29 08:18:50;;;;;;;13.70;6.50;;;12.30;99.90;;;;;;4975392;28;20486;-62
2022/09/29 08:21:17;;;;;;;7.03;6.47;;;12.40;99.90;;;;;;4974949;28;20989;-62
2022/09/29 08:23:44;;;;;;;6.80;6.20;;;12.50;99.90;;;;;;4975312;28;20458;-62
2022/09/29 08:26:13;;;;;;;6.23;5.67;;;12.60;99.90;;;;;;4975497;28;20462;-62
2022/09/29 08:28:40;;;;;;;8.60;5.60;;;12.70;99.90;;;;;;4975189;28;20481;-62
2022/09/29 08:31:09;;;;;;;9.00;5.50;;;12.90;99.90;;;;;;4974764;28;21024;-62
2022/09/29 08:33:38;;;;;;;7.00;6.30;;;13.00;99.90;;;;;;4975268;28;20454;-62
2022/09/29 08:36:13;;;;;;;5.07;4.63;;;13.20;99.90;;;;;;4975243;28;20509;-62
2022/09/29 08:38:41;;;;;;;7.10;5.87;;;13.50;99.90;;;;;;4975776;28;20442;-62
2022/09/29 08:41:21;;;;;;;5.53;4.93;;;13.70;99.90;;;;;;4975441;28;20568;-62
2022/09/29 08:43:49;;;;;;;6.63;5.27;;;14.00;99.90;;;;;;4975621;28;20439;-62
2022/09/29 08:46:24;;;;;;;6.40;4.73;;;14.20;99.90;;;;;;4975123;28;20802;-62
2022/09/29 08:48:54;;;;;;;6.00;4.67;;;14.40;99.90;;;;;;4975627;28;20462;-62
2022/09/29 08:51:29;;;;;;;5.17;4.60;;;14.50;99.90;;;;;;4975209;28;20478;-63
2022/09/29 08:53:59;;;;;;;4.93;4.57;;;14.70;99.90;;;;;;4976061;28;20501;-62
2022/09/29 08:56:26;;;;;;;4.70;4.30;;;14.80;99.90;;;;;;4975543;28;20486;-62
2022/09/29 08:58:53;;;;;;;5.83;4.20;;;15.20;99.90;;;;;;4975541;28;20509;-62
2022/09/29 09:01:27;;;;;;;6.20;4.20;;;15.90;99.90;;;;;;4975013;28;20881;-62
2022/09/29 09:04:22;;;;;;;4.90;4.50;;;16.50;99.90;;;;;;4978744;28;20442;-60
2022/09/29 09:07:05;;;;;;;5.00;4.50;;;17.20;99.90;;;;;;4979342;28;20439;-60
2022/09/29 09:09:49;;;;;;;5.30;4.80;;;17.80;99.90;;;;;;4978648;28;20966;-60
2022/09/29 09:12:29;;;;;;;4.57;4.17;;;17.70;99.90;;;;;;4978961;28;20484;-62
2022/09/29 09:15:07;;;;;;;4.30;4.00;;;17.90;99.90;;;;;;4979041;28;20497;-59
2022/09/29 09:17:53;;;;;;;4.83;3.90;;;18.10;99.90;;;;;;4979925;28;20439;-61
2022/09/29 09:20:32;;;;;;;4.87;4.47;;;18.30;99.90;;;;;;4981339;28;20494;-59
2022/09/29 09:23:00;;;;;;;4.50;4.20;;;18.90;99.90;;;;;;4978759;28;20439;-60
2022/09/29 09:25:31;;;;;;;4.80;4.00;;;19.80;99.90;;;;;;4978937;28;20454;-60
2022/09/29 09:28:11;;;;;;;4.77;4.27;;;20.30;99.90;;;;;;4979778;28;20470;-60
2022/09/29 09:30:42;;;;;;;4.20;3.90;;;20.80;99.90;;;;;;4979908;28;20806;-59
2022/09/29 09:33:19;;;;;;;4.47;4.07;;;20.80;99.70;;;;;;4979911;28;20494;-62
2022/09/29 09:35:52;;;;;;;4.17;3.77;;;20.80;98.90;;;;;;4978660;28;20439;-60
2022/09/29 09:38:24;;;;;;;4.10;3.80;;;20.60;98.70;;;;;;4978717;28;20493;-60
2022/09/29 09:40:55;;;;;;;5.97;4.17;;;20.60;98.20;;;;;;4978221;28;20914;-61
2022/09/29 09:43:27;;;;;;;4.73;4.00;;;20.30;97.90;;;;;;4978598;28;20501;-60
2022/09/29 09:45:59;;;;;;;3.93;3.57;;;19.90;97.90;;;;;;4980176;28;20494;-60
2022/09/29 09:48:31;;;;;;;4.70;4.27;;;19.40;98.30;;;;;;4978474;28;20493;-60
2022/09/29 09:51:02;;;;;;;3.57;3.27;;;18.80;99.90;;;;;;4978075;28;20976;-60
2022/09/29 09:53:36;;;;;;;5.23;4.83;;;18.30;99.90;;;;;;4978293;28;20997;-61
2022/09/29 09:56:15;;;;;;;5.73;4.27;;;17.90;99.90;;;;;;4978616;28;20453;-60
2022/09/29 09:59:06;;;;;;;7.60;3.20;;;17.60;99.90;;;;;;4978305;28;20840;-60
2022/09/29 10:01:33;;;;;;;5.63;4.60;;;17.30;99.90;;;;;;4977975;28;20486;-62
2022/09/29 10:04:01;;;;;;;4.83;4.50;;;17.10;99.90;;;;;;4977931;28;20513;-62
2022/09/29 10:06:29;;;;;;;6.97;4.20;;;16.90;99.90;;;;;;4977926;28;20550;-62
2022/09/29 10:08:56;;;;;;;4.80;3.40;;;16.60;99.90;;;;;;4978237;28;20479;-62
2022/09/29 10:11:24;;;;;;;5.90;4.20;;;16.50;99.90;;;;;;4977766;28;20876;-62
2022/09/29 10:13:58;;;;;;;3.63;3.27;;;16.50;99.90;;;;;;4977787;28;20462;-62
2022/09/29 10:16:30;;;;;;;3.33;3.13;;;16.50;99.90;;;;;;4977878;28;20529;-61
2022/09/29 10:18:56;;;;;;;4.50;2.80;;;16.60;99.90;;;;;;4977661;28;20493;-61
2022/09/29 10:21:39;;;;;;;2.63;2.20;;;16.60;99.90;;;;;;4977928;28;20482;-61
2022/09/29 10:24:20;;;;;;;3.60;2.50;;;16.70;99.90;;;;;;4977755;28;20443;-61
2022/09/29 10:26:48;;;;;;;3.50;3.20;;;16.80;99.90;;;;;;4977657;28;20443;-61
2022/09/29 10:29:24;;;;;;;3.33;3.03;;;17.00;99.90;;;;;;4977388;28;20487;-61
2022/09/29 10:32:00;;;;;;;7.13;3.23;;;17.00;99.90;;;;;;4977317;28;20479;-61
2022/09/29 10:34:28;;;;;;;3.53;3.00;;;17.00;99.90;;;;;;4977313;28;20454;-62
2022/09/29 10:37:00;;;;;;;3.93;2.80;;;17.00;99.90;;;;;;4977504;28;20489;-62
2022/09/29 10:39:32;;;;;;;3.47;2.60;;;17.10;99.90;;;;;;4977970;28;20522;-62
2022/09/29 10:41:59;;;;;;;3.63;2.77;;;17.20;99.90;;;;;;4977414;28;20533;-62
2022/09/29 10:44:31;;;;;;;2.70;2.50;;;17.30;99.90;;;;;;4977685;28;20451;-61
2022/09/29 10:46:58;;;;;;;3.40;2.80;;;17.30;99.90;;;;;;4977280;28;20505;-61
2022/09/29 10:49:28;;;;;;;3.13;2.93;;;17.50;99.90;;;;;;4977179;28;20542;-62
2022/09/29 10:52:01;;;;;;;6.53;3.30;;;18.00;99.90;;;;;;4976721;28;20479;-61
2022/09/29 10:54:31;;;;;;;3.23;2.83;;;18.40;99.90;;;;;;4976882;28;20475;-62
2022/09/29 10:56:59;;;;;;;3.53;2.60;;;19.10;99.90;;;;;;4976960;28;20997;-62
2022/09/29 10:59:27;;;;;;;2.93;2.27;;;19.10;99.50;;;;;;4977519;28;20801;-62
2022/09/29 11:01:58;;;;;;;2.57;2.37;;;19.60;99.90;;;;;;4977451;28;20537;-62
2022/09/29 11:04:31;;;;;;;3.57;2.90;;;19.80;99.20;;;;;;4977446;28;20850;-62
2022/09/29 11:07:09;;;;;;;3.20;2.73;;;19.50;99.60;;;;;;4977615;28;20443;-62
2022/09/29 11:09:39;;;;;;;4.07;3.07;;;19.70;99.90;;;;;;4977848;28;20477;-61
2022/09/29 11:12:22;;;;;;;4.67;2.60;;;19.70;99.10;;;;;;4976877;28;20497;-61
2022/09/29 11:14:49;;;;;;;3.67;2.80;;;19.80;98.60;;;;;;4977256;28;20902;-62
2022/09/29 11:17:25;;;;;;;2.83;2.63;;;19.90;99.90;;;;;;4977925;28;20502;-62
2022/09/29 11:19:54;;;;;;;3.07;2.87;;;20.10;97.00;;;;;;4976685;28;20461;-62
2022/09/29 11:22:51;;;;;;;2.50;2.30;;;20.10;97.80;;;;;;4976684;28;20479;-62
2022/09/29 11:25:49;;;;;;;4.03;3.00;;;20.10;96.90;;;;;;4975528;28;20439;-62
2022/09/29 11:28:35;;;;;;;3.57;3.37;;;20.10;96.40;;;;;;4976563;28;20450;-62
2022/09/29 11:31:16;;;;;;;7.10;3.37;;;20.20;96.80;;;;;;4977064;28;20497;-62
2022/09/29 11:33:52;;;;;;;3.97;3.20;;;20.20;97.20;;;;;;4976337;28;20486;-61
2022/09/29 11:36:28;;;;;;;5.20;3.10;;;20.20;96.80;;;;;;4975972;28;20434;-62
2022/09/29 11:39:09;;;;;;;4.57;3.50;;;20.10;95.10;;;;;;4976125;28;20910;-62
2022/09/29 11:41:49;;;;;;;5.87;3.80;;;19.80;95.00;;;;;;4976596;28;20911;-61
2022/09/29 11:44:40;;;;;;;5.17;3.07;;;19.40;94.70;;;;;;4976529;28;20477;-61
2022/09/29 11:47:19;;;;;;;3.63;3.20;;;19.00;96.40;;;;;;4970801;28;20455;-61
2022/09/29 11:50:02;;;;;;;4.43;3.20;;;18.80;97.00;;;;;;4976813;28;20467;-61
2022/09/29 11:52:47;;;;;;;3.43;3.13;;;18.60;96.10;;;;;;4976355;28;20474;-61
2022/09/29 11:55:30;;;;;;;3.30;3.10;;;18.30;96.80;;;;;;4976041;28;20435;-60
2022/09/29 11:58:08;;;;;;;3.13;2.90;;;18.00;98.60;;;;;;4975957;28;20513;-60
2022/09/29 12:00:50;;;;;;;4.03;3.10;;;17.90;99.90;;;;;;4975692;28;20490;-61
2022/09/29 12:03:26;;;;;;;3.40;2.93;;;17.80;98.70;;;;;;4975720;28;20443;-60
2022/09/29 12:06:28;;;;;;;3.17;2.60;;;17.70;99.50;;;;;;4975629;28;20497;-60
2022/09/29 12:09:03;;;;;;;3.20;2.70;;;17.80;99.90;;;;;;4968703;28;20961;-61
2022/09/29 12:11:41;;;;;;;2.87;2.50;;;17.70;99.90;;;;;;4975908;28;20501;-62
2022/09/29 12:14:14;;;;;;;6.20;2.50;;;17.70;99.90;;;;;;4976175;28;20439;-60
2022/09/29 12:16:48;;;;;;;2.70;2.50;;;17.60;99.20;;;;;;4975378;28;20439;-62
2022/09/29 12:19:18;;;;;;;2.97;2.70;;;17.50;99.20;;;;;;4975259;28;20497;-61
2022/09/29 12:21:49;;;;;;;2.23;2.13;;;17.50;98.40;;;;;;4975476;28;20899;-61
2022/09/29 12:24:21;;;;;;;2.97;2.60;;;17.40;98.80;;;;;;4974880;28;20929;-61
2022/09/29 12:26:51;;;;;;;4.63;2.60;;;17.30;98.50;;;;;;4975227;28;20447;-62
2022/09/29 12:29:26;;;;;;;3.60;3.10;;;17.30;98.70;;;;;;4975105;28;20474;-61
2022/09/29 12:31:56;;;;;;;4.80;2.37;;;17.40;98.00;;;;;;4974967;28;20544;-62
2022/09/29 12:34:30;;;;;;;2.47;2.27;;;17.40;97.90;;;;;;4975732;28;20779;-61
2022/09/29 12:37:02;;;;;;;6.47;2.80;;;17.40;96.90;;;;;;4975060;28;20846;-62
2022/09/29 12:39:43;;;;;;;2.90;2.27;;;17.30;97.20;;;;;;4975169;28;20462;-62
2022/09/29 12:42:33;;;;;;;2.43;2.20;;;17.30;97.80;;;;;;4975124;28;20811;-61
2022/09/29 12:45:06;;;;;;;2.00;1.83;;;17.40;99.10;;;;;;4973298;28;20463;-62
2022/09/29 12:47:47;;;;;;;2.30;2.10;;;17.40;99.20;;;;;;4975383;28;20442;-62
2022/09/29 12:50:18;;;;;;;3.17;2.17;;;17.60;98.70;;;;;;4974957;28;20467;-62
2022/09/29 12:52:50;;;;;;;2.70;2.50;;;17.70;99.90;;;;;;4975023;28;20493;-62
2022/09/29 12:55:24;;;;;;;2.90;2.20;;;17.80;98.30;;;;;;4974998;28;20855;-62
2022/09/29 12:57:57;;;;;;;5.47;2.50;;;17.80;98.60;;;;;;4974870;28;20482;-61
2022/09/29 13:00:24;;;;;;;4.03;2.30;;;17.80;97.70;;;;;;4974669;28;20454;-60
2022/09/29 13:03:19;;;;;;;7.37;2.60;;;17.50;97.30;;;;;;4974765;28;20443;-61
2022/09/29 13:06:02;;;;;;;2.40;2.20;;;17.30;98.40;;;;;;4974966;28;20498;-60
2022/09/29 13:09:02;;;;;;;2.47;2.27;;;17.10;98.20;;;;;;4974688;28;20443;-60
2022/09/29 13:12:04;;;;;;;2.33;2.23;;;16.90;98.40;;;;;;4974751;28;20526;-61
2022/09/29 13:14:56;;;;;;;4.10;2.13;;;16.70;98.20;;;;;;4974771;28;20838;-60
2022/09/29 13:17:41;;;;;;;3.27;2.13;;;16.60;99.60;;;;;;4974693;28;20502;-60
2022/09/29 13:20:43;;;;;;;4.20;3.17;;;16.60;99.70;;;;;;4974775;28;20485;-60
2022/09/29 13:23:30;;;;;;;4.73;2.67;;;16.50;99.90;;;;;;4934004;29;20487;-60
2022/09/29 13:26:10;;;;;;;3.50;2.80;;;16.50;99.20;;;;;;4972064;28;20466;-61
2022/09/29 13:28:40;;;;;;;3.03;2.13;;;16.40;99.20;;;;;;4974582;28;20446;-62
2022/09/29 13:31:13;;;;;;;3.60;2.53;;;16.50;99.30;;;;;;4974384;28;20467;-60
2022/09/29 13:33:40;;;;;;;2.30;2.10;;;16.50;99.90;;;;;;4974581;28;20435;-60
2022/09/29 13:36:08;;;;;;;2.20;1.90;;;16.50;99.90;;;;;;4974320;28;20458;-60
2022/09/29 13:38:37;;;;;;;3.70;2.10;;;16.50;99.90;;;;;;4974585;28;20457;-60
2022/09/29 13:41:14;;;;;;;3.37;1.83;;;16.50;99.90;;;;;;4974416;28;20482;-60
2022/09/29 13:44:05;;;;;;;2.10;1.90;;;16.50;99.90;;;;;;4974419;28;20813;-60
2022/09/29 13:46:40;;;;;;;2.50;2.30;;;16.50;99.90;;;;;;4974582;28;20530;-60
2022/09/29 13:49:16;;;;;;;2.30;2.10;;;16.50;99.90;;;;;;4976485;28;20462;-60
2022/09/29 13:51:48;;;;;;;2.33;2.10;;;16.50;99.90;;;;;;4977953;28;20893;-60
2022/09/29 13:54:33;;;;;;;2.40;1.90;;;16.30;99.90;;;;;;4978211;28;20478;-60
2022/09/29 13:57:18;;;;;;;3.63;1.73;;;16.20;99.90;;;;;;4978320;28;20442;-60
2022/09/29 14:00:01;;;;;;;4.50;2.30;;;16.30;99.90;;;;;;4978101;28;20488;-60
2022/09/29 14:02:35;;;;;;;14.23;2.17;;;16.30;99.90;;;;;;4977741;28;20561;-61
2022/09/29 14:05:03;;;;;;;2.57;2.37;;;16.20;99.90;;;;;;4977816;28;20442;-60
2022/09/29 14:07:40;;;;;;;3.60;2.20;;;16.20;99.90;;;;;;4977748;28;20458;-61
2022/09/29 14:10:21;;;;;;;5.73;2.20;;;16.00;99.90;;;;;;4977732;28;20478;-61
2022/09/29 14:12:54;;;;;;;5.00;2.10;;;15.90;99.90;;;;;;4977654;28;20439;-61
2022/09/29 14:15:22;;;;;;;2.40;1.70;;;15.90;99.90;;;;;;4978342;28;20447;-61
2022/09/29 14:17:56;;;;;;;4.87;2.27;;;15.90;99.90;;;;;;4977606;28;20596;-61
2022/09/29 14:20:26;;;;;;;2.83;2.33;;;15.90;99.90;;;;;;4977725;28;20438;-61
2022/09/29 14:22:59;;;;;;;6.53;2.30;;;15.90;99.90;;;;;;4977932;28;20518;-61
2022/09/29 14:25:52;;;;;;;2.30;2.10;;;15.90;99.90;;;;;;4977223;28;20937;-61
2022/09/29 14:28:30;;;;;;;2.67;2.00;;;16.00;99.90;;;;;;4977606;28;20443;-62
2022/09/29 14:31:01;;;;;;;2.20;2.10;;;16.00;99.90;;;;;;4977346;28;20565;-61
2022/09/29 14:33:35;;;;;;;3.30;1.83;;;15.90;99.90;;;;;;4977469;28;20443;-61
2022/09/29 14:36:05;;;;;;;2.10;1.90;;;15.80;99.90;;;;;;4977298;28;20923;-61
2022/09/29 14:38:34;;;;;;;2.33;1.90;;;15.80;99.90;;;;;;4978057;28;20497;-61
2022/09/29 14:41:04;;;;;;;5.80;1.80;;;15.80;99.90;;;;;;4977066;28;20474;-62
2022/09/29 14:43:39;;;;;;;3.63;1.93;;;15.80;99.90;;;;;;4977546;28;20443;-61
2022/09/29 14:52:39;;;;;;;2.93;1.70;;;15.50;99.90;;;;;;4977361;28;20465;-61
2022/09/29 14:55:16;;;;;;;1.90;1.80;;;15.40;99.90;;;;;;4977269;28;20439;-61
2022/09/29 14:58:06;;;;;;;2.70;1.90;;;15.40;99.90;;;;;;4977282;28;20442;-62
2022/09/29 15:00:47;;;;;;;2.63;2.13;;;15.40;99.90;;;;;;4975835;28;20467;-61
2022/09/29 15:03:18;;;;;;;3.73;1.97;;;15.30;99.90;;;;;;4977259;28;20443;-61
2022/09/29 15:05:46;;;;;;;4.30;2.10;;;15.30;99.90;;;;;;4977270;28;20506;-61
2022/09/29 15:08:27;;;;;;;3.13;1.60;;;15.30;99.90;;;;;;4976478;28;20505;-61
2022/09/29 15:10:55;;;;;;;2.27;2.17;;;15.30;99.90;;;;;;4976434;28;20483;-61
2022/09/29 15:13:26;;;;;;;2.70;1.90;;;15.30;99.90;;;;;;4976676;28;20455;-61
2022/09/29 15:15:57;;;;;;;4.23;1.90;;;15.30;99.90;;;;;;4977163;28;20446;-61
2022/09/29 15:18:44;;;;;;;2.10;2.00;;;15.30;99.90;;;;;;4976590;28;20435;-61
2022/09/29 15:21:19;;;;;;;4.50;1.90;;;15.30;99.90;;;;;;4976298;28;20477;-61
2022/09/29 15:24:13;;;;;;;2.13;1.80;;;15.30;99.90;;;;;;4976482;28;20438;-61
2022/09/29 15:26:41;;;;;;;2.47;2.23;;;15.30;99.90;;;;;;4976245;28;20446;-61
2022/09/29 15:29:13;;;;;;;4.50;2.10;;;15.20;99.90;;;;;;4976176;28;20435;-61
2022/09/29 15:31:43;;;;;;;2.67;2.00;;;15.20;99.90;;;;;;4976001;28;20526;-61
2022/09/29 15:34:15;;;;;;;4.33;1.60;;;15.10;99.90;;;;;;4975787;28;20941;-61
2022/09/29 15:36:46;;;;;;;2.37;2.13;;;15.10;99.90;;;;;;4975812;28;20902;-61
2022/09/29 15:39:43;;;;;;;2.87;2.60;;;15.10;99.90;;;;;;4975940;28;20435;-61
2022/09/29 15:42:20;;;;;;;2.80;2.30;;;15.00;99.90;;;;;;4975830;28;20569;-62
2022/09/29 15:44:53;;;;;;;2.50;2.30;;;15.00;99.90;;;;;;4976025;28;20461;-61
2022/09/29 15:47:23;;;;;;;4.87;2.30;;;15.00;99.90;;;;;;4975964;28;20439;-61
2022/09/29 15:49:51;;;;;;;3.30;2.03;;;15.10;99.90;;;;;;4975879;28;20506;-62
2022/09/29 15:52:22;;;;;;;2.50;1.67;;;15.10;99.90;;;;;;4975437;28;20533;-62
2022/09/29 15:54:53;;;;;;;2.67;1.97;;;15.10;99.90;;;;;;4976096;28;20450;-62
2022/09/29 15:57:45;;;;;;;2.40;2.00;;;15.10;99.90;;;;;;4975617;28;20462;-61
2022/09/29 16:00:52;;;;;;;2.07;1.97;;;15.00;99.90;;;;;;4973861;28;20870;-61
2022/09/29 16:03:26;;;;;;;2.97;1.90;;;15.00;99.90;;;;;;4975826;28;20481;-62
2022/09/29 16:06:01;;;;;;;2.83;2.53;;;15.00;99.90;;;;;;4975593;28;20467;-61
2022/09/29 16:08:31;;;;;;;1.80;1.70;;;15.00;99.90;;;;;;4975475;28;20438;-61
2022/09/29 16:11:03;;;;;;;3.60;1.60;;;15.00;99.90;;;;;;4975374;28;20509;-61
2022/09/29 16:13:32;;;;;;;1.93;1.50;;;15.00;99.90;;;;;;4975607;28;20542;-61
2022/09/29 16:16:02;;;;;;;2.97;1.90;;;15.00;99.90;;;;;;4975598;28;20458;-61
2022/09/29 16:18:32;;;;;;;2.20;2.00;;;15.00;99.90;;;;;;4975554;28;20482;-61
2022/09/29 16:21:04;;;;;;;2.80;2.23;;;14.90;99.90;;;;;;4975441;28;20475;-61
2022/09/29 16:23:40;;;;;;;2.40;1.93;;;14.90;99.90;;;;;;4975237;28;20450;-62
2022/09/29 16:26:33;;;;;;;2.30;2.10;;;14.90;99.90;;;;;;4975333;28;20914;-61
2022/09/29 16:29:30;;;;;;;3.40;2.80;;;14.80;99.90;;;;;;4975312;28;20518;-61
2022/09/29 16:31:57;;;;;;;2.33;2.03;;;14.70;99.90;;;;;;4975236;28;20510;-61
2022/09/29 16:34:33;;;;;;;4.20;2.80;;;14.60;99.90;;;;;;4974938;28;20458;-61
2022/09/29 16:37:02;;;;;;;3.10;2.90;;;14.50;99.90;;;;;;4975012;28;20513;-61
2022/09/29 16:39:32;;;;;;;3.97;3.17;;;14.50;99.90;;;;;;4974732;28;20942;-61
2022/09/29 16:42:03;;;;;;;3.13;2.67;;;14.50;99.90;;;;;;4975295;28;20533;-61
2022/09/29 16:44:32;;;;;;;4.10;2.43;;;14.40;99.90;;;;;;4975136;28;20439;-61
2022/09/29 16:47:01;;;;;;;3.60;2.50;;;14.40;99.90;;;;;;4974898;28;20513;-61
2022/09/29 16:49:31;;;;;;;5.50;2.60;;;14.30;99.90;;;;;;4974982;28;20469;-61
2022/09/29 16:52:01;;;;;;;3.70;2.67;;;14.30;99.90;;;;;;4974779;28;20487;-61
2022/09/29 16:54:32;;;;;;;3.73;2.63;;;14.20;99.90;;;;;;4975844;28;20542;-62
2022/09/29 16:57:22;;;;;;;2.80;2.60;;;14.20;99.90;;;;;;4974602;28;20949;-61
2022/09/29 16:59:51;;;;;;;4.37;3.00;;;14.10;99.90;;;;;;4974618;28;20439;-61
2022/09/29 17:02:18;;;;;;;3.60;3.30;;;14.00;99.90;;;;;;4974669;28;20573;-61
2022/09/29 17:04:45;;;;;;;8.60;4.20;;;14.00;99.90;;;;;;4974783;28;20458;-61
2022/09/29 17:07:14;;;;;;;4.23;3.70;;;13.90;99.90;;;;;;4975017;28;20455;-61
2022/09/29 17:09:44;;;;;;;7.10;5.30;;;13.80;99.90;;;;;;4974549;28;20482;-61
2022/09/29 17:12:13;;;;;;;7.53;3.90;;;13.80;99.90;;;;;;4974701;28;20470;-62
2022/09/29 17:14:40;;;;;;;5.97;3.87;;;13.70;99.90;;;;;;4974704;28;20848;-61
2022/09/29 17:17:07;;;;;;;3.30;3.00;;;13.60;99.90;;;;;;4974746;28;20454;-62
2022/09/29 17:19:33;;;;;;;3.50;3.20;;;13.50;99.90;;;;;;4974874;28;20525;-62
2022/09/29 17:22:01;;;;;;;5.93;3.43;;;13.40;99.90;;;;;;4974519;28;20874;-61
2022/09/29 17:24:29;;;;;;;4.33;3.50;;;13.40;99.90;;;;;;4978970;28;20454;-61